Stuttgart, Germany
Current Conditions -  °F | °C
As of 2:20 PM on Tuesday 21 Oct 2014 (Local Time) from EDDS Reporting Station
Broken Clouds Broken Clouds  
Wind Chill: 63°   Ceiling: 9000
Heat Index: 63°   Visibility: 6mi
Dew Point: 48°   Wind: 13mph
Humidity: 59%   Direction: 230°SW
Pressure: 29.8"   Gusts: 26mph
Location:  48.78°N, 9.18°E
Report Text: EDDS 211220Z 23011G23KT 9999 FEW030 SCT050 BKN090 17/09 Q1009 TEMPO 24015G30KT
Loading
Personal Weather Stations






























Interactive Weather Map
Tropical Storm Tracking
New forecast layout! Learn more

10-Day Weather Forecast

Advertisements
Track Severe Weather on mobile